createdAt,value
2023-04-19T00:01:32.772Z,60.10
2023-04-19T00:03:59.921Z,60.55
2023-04-19T00:06:30.674Z,60.20
2023-04-19T00:08:57.757Z,59.90
2023-04-19T00:11:24.878Z,60.42
2023-04-19T00:13:51.959Z,60.53
2023-04-19T00:16:18.952Z,59.61
2023-04-19T00:18:46.813Z,59.26
2023-04-19T00:21:13.864Z,59.77
2023-04-19T00:23:40.937Z,60.62
2023-04-19T00:26:07.913Z,59.88
2023-04-19T00:28:35.418Z,60.79
2023-04-19T00:31:02.378Z,59.94
2023-04-19T00:33:31.329Z,59.51
2023-04-19T00:35:58.430Z,59.57
2023-04-19T00:38:25.567Z,60.45
2023-04-19T00:40:52.622Z,61.02
2023-04-19T00:43:20.204Z,59.85
2023-04-19T00:45:49.486Z,60.94
2023-04-19T00:48:16.972Z,61.18
2023-04-19T00:50:46.232Z,60.81
2023-04-19T00:53:13.368Z,60.35
2023-04-19T00:55:40.521Z,60.86
2023-04-19T00:58:08.862Z,61.23
2023-04-19T01:00:37.013Z,60.80
2023-04-19T01:03:04.348Z,61.40
2023-04-19T01:05:31.651Z,60.62
2023-04-19T01:07:58.622Z,60.04
2023-04-19T01:10:27.078Z,60.97
2023-04-19T01:12:54.088Z,60.95
2023-04-19T01:15:21.205Z,60.46
2023-04-19T01:17:49.892Z,60.01
2023-04-19T01:20:16.846Z,60.31
2023-04-19T01:22:44.617Z,61.23
2023-04-19T01:25:11.764Z,61.46
2023-04-19T01:27:38.824Z,60.79
2023-04-19T01:30:06.637Z,61.36
2023-04-19T01:32:33.698Z,61.08
2023-04-19T01:35:00.871Z,60.36
2023-04-19T01:37:30.343Z,61.10
2023-04-19T01:39:57.480Z,61.78
2023-04-19T01:42:24.823Z,60.52
2023-04-19T01:44:52.712Z,61.39
2023-04-19T01:47:19.852Z,61.56
2023-04-19T01:49:47.099Z,61.82
2023-04-19T01:52:15.865Z,62.06
2023-04-19T01:54:42.852Z,61.90
2023-04-19T01:57:09.878Z,62.40
2023-04-19T01:59:36.750Z,61.10
2023-04-19T02:02:07.168Z,62.31
2023-04-19T02:04:34.927Z,62.55
2023-04-19T02:07:01.847Z,62.49
2023-04-19T02:09:29.403Z,61.45
2023-04-19T02:11:56.351Z,61.62
2023-04-19T02:14:23.191Z,62.20
2023-04-19T02:16:50.265Z,61.96
2023-04-19T02:19:18.131Z,62.20
2023-04-19T02:21:45.011Z,61.56
2023-04-19T02:24:14.628Z,61.49
2023-04-19T02:26:42.599Z,62.81
2023-04-19T02:29:09.955Z,61.54
2023-04-19T02:31:38.671Z,62.34
2023-04-19T02:34:09.515Z,62.31
2023-04-19T02:36:36.521Z,62.60
2023-04-19T02:39:05.586Z,62.63
2023-04-19T02:41:32.760Z,62.51
2023-04-19T02:44:02.247Z,62.48
2023-04-19T02:46:29.323Z,61.96
2023-04-19T02:48:56.575Z,62.60
2023-04-19T02:51:23.572Z,62.81
2023-04-19T02:53:50.614Z,62.80
2023-04-19T02:56:17.717Z,62.80
2023-04-19T02:58:45.593Z,62.07
2023-04-19T03:01:12.693Z,62.10
2023-04-19T03:03:39.768Z,63.46
2023-04-19T03:06:07.142Z,62.86
2023-04-19T03:08:34.218Z,62.70
2023-04-19T03:11:01.256Z,62.44
2023-04-19T03:13:30.579Z,63.66
2023-04-19T03:15:57.594Z,63.19
2023-04-19T03:18:25.068Z,63.34
2023-04-19T03:20:55.224Z,63.42
2023-04-19T03:23:22.353Z,63.45
2023-04-19T03:25:51.290Z,63.23
2023-04-19T03:28:32.914Z,63.91
2023-04-19T03:31:35.498Z,63.77
2023-04-19T03:34:03.976Z,63.47
2023-04-19T03:36:40.459Z,63.89
2023-04-19T03:39:08.157Z,63.38
2023-04-19T03:41:37.072Z,63.16
2023-04-19T03:44:22.657Z,62.97
2023-04-19T03:46:49.674Z,63.53
2023-04-19T03:49:21.389Z,63.34
2023-04-19T03:51:54.188Z,63.42
2023-04-19T03:54:21.126Z,63.70
2023-04-19T03:56:48.102Z,63.92
2023-04-19T03:59:15.798Z,63.90
2023-04-19T04:01:43.379Z,64.17
2023-04-19T04:04:11.956Z,64.57
2023-04-19T04:06:39.835Z,64.80
2023-04-19T04:09:07.712Z,65.01
2023-04-19T04:11:35.232Z,64.05
2023-04-19T04:14:02.549Z,65.00
2023-04-19T04:16:35.279Z,64.07
2023-04-19T04:19:02.342Z,64.98
2023-04-19T04:21:32.302Z,67.06
2023-04-19T04:24:02.123Z,66.84
2023-04-19T04:27:04.783Z,66.61
2023-04-19T04:29:34.722Z,65.46
2023-04-19T04:32:08.360Z,66.24
2023-04-19T04:34:38.686Z,65.64
2023-04-19T04:37:10.625Z,65.08
2023-04-19T04:39:39.885Z,64.89
2023-04-19T04:42:09.197Z,65.66
2023-04-19T04:44:37.452Z,66.08
2023-04-19T04:47:05.341Z,65.87
2023-04-19T04:49:38.496Z,65.50
2023-04-19T04:52:06.533Z,65.12
2023-04-19T04:54:39.367Z,64.90
2023-04-19T04:57:15.904Z,64.94
2023-04-19T04:59:43.204Z,65.22
2023-04-19T05:02:11.006Z,65.41
2023-04-19T05:04:39.218Z,65.65
2023-04-19T05:07:06.436Z,65.55
2023-04-19T05:09:33.384Z,65.58
2023-04-19T05:12:01.818Z,65.48
2023-04-19T05:14:29.929Z,66.13
2023-04-19T05:16:56.852Z,64.93
2023-04-19T05:19:23.913Z,66.10
2023-04-19T05:21:57.320Z,65.84
2023-04-19T05:24:24.321Z,65.69
2023-04-19T05:26:51.867Z,65.92
2023-04-19T05:29:18.871Z,66.02
2023-04-19T05:31:48.985Z,65.99
2023-04-19T05:34:22.068Z,65.12
2023-04-19T05:36:49.734Z,65.02
2023-04-19T05:39:17.362Z,65.91
2023-04-19T05:41:44.500Z,65.21
2023-04-19T05:44:11.650Z,65.61
2023-04-19T05:46:38.659Z,65.28
2023-04-19T05:49:08.533Z,65.18
2023-04-19T05:52:04.989Z,66.06
2023-04-19T05:54:47.461Z,65.77
2023-04-19T05:57:14.555Z,65.64
2023-04-19T05:59:42.579Z,66.12
2023-04-19T06:02:10.976Z,65.57
2023-04-19T06:04:38.391Z,64.87
2023-04-19T06:07:10.531Z,65.67
2023-04-19T06:09:44.910Z,64.83
2023-04-19T06:12:11.947Z,65.04
2023-04-19T06:14:38.821Z,64.50
2023-04-19T06:17:06.206Z,65.24
2023-04-19T06:19:34.046Z,64.18
2023-04-19T06:22:01.564Z,64.98
2023-04-19T06:24:28.850Z,64.42
2023-04-19T06:26:56.892Z,64.69
2023-04-19T06:29:24.204Z,65.24
2023-04-19T06:31:51.552Z,64.79
2023-04-19T06:34:18.922Z,65.10
2023-04-19T06:36:46.189Z,63.64
2023-04-19T06:39:13.274Z,64.81
2023-04-19T06:41:40.178Z,64.44
2023-04-19T06:44:07.369Z,63.79
2023-04-19T06:46:34.367Z,64.04
2023-04-19T06:49:01.183Z,63.77
2023-04-19T06:51:28.141Z,63.27
2023-04-19T06:53:55.367Z,64.04
2023-04-19T06:56:47.749Z,63.21
2023-04-19T06:59:19.968Z,63.64
2023-04-19T07:01:48.223Z,63.64
2023-04-19T07:04:16.137Z,62.58
2023-04-19T07:06:43.647Z,62.03
2023-04-19T07:09:10.681Z,62.34
2023-04-19T07:11:37.584Z,61.56
2023-04-19T07:14:04.535Z,61.66
2023-04-19T07:16:31.617Z,62.29
2023-04-19T07:18:58.690Z,61.11
2023-04-19T07:21:28.795Z,61.55
2023-04-19T07:23:55.809Z,61.17
2023-04-19T07:26:22.632Z,60.34
2023-04-19T07:28:50.457Z,60.38
2023-04-19T07:31:18.597Z,60.74
2023-04-19T07:33:45.983Z,60.66
2023-04-19T07:36:13.918Z,60.21
2023-04-19T07:38:40.765Z,60.15
2023-04-19T07:41:07.720Z,59.52
2023-04-19T07:43:35.155Z,59.38
2023-04-19T07:46:02.556Z,59.74
2023-04-19T07:48:29.728Z,58.94
2023-04-19T07:50:56.726Z,58.51
2023-04-19T07:53:23.597Z,58.94
2023-04-19T07:55:50.453Z,58.41
2023-04-19T07:58:17.561Z,58.15
2023-04-19T08:00:44.437Z,57.85
2023-04-19T08:03:11.595Z,57.60
2023-04-19T08:05:39.305Z,57.04
2023-04-19T08:08:06.300Z,56.82
2023-04-19T08:10:33.586Z,56.76
2023-04-19T08:13:05.207Z,56.36
2023-04-19T08:18:05.294Z,55.67
2023-04-19T08:20:32.848Z,55.70
2023-04-19T08:23:07.225Z,55.55
2023-04-19T08:25:35.207Z,55.33
2023-04-19T08:28:02.377Z,54.98
2023-04-19T08:30:29.233Z,54.76
2023-04-19T08:32:57.450Z,54.11
2023-04-19T08:35:25.394Z,53.80
2023-04-19T08:37:52.653Z,53.62
2023-04-19T08:40:19.717Z,52.88
2023-04-19T08:42:46.618Z,52.81
2023-04-19T08:45:27.581Z,52.92
2023-04-19T08:48:01.516Z,52.31
2023-04-19T08:53:08.540Z,51.77
2023-04-19T08:56:06.780Z,52.31
2023-04-19T08:58:54.932Z,51.35
2023-04-19T09:01:34.731Z,51.53
2023-04-19T09:04:21.688Z,52.13
2023-04-19T09:06:55.731Z,51.62
2023-04-19T09:11:58.273Z,51.79
2023-04-19T09:14:26.695Z,51.10
2023-04-19T09:16:53.911Z,50.57
2023-04-19T09:19:24.822Z,51.69
2023-04-19T09:21:54.714Z,51.63
2023-04-19T09:25:13.809Z,51.15
2023-04-19T09:27:27.938Z,50.41
2023-04-19T09:29:56.963Z,50.97
2023-04-19T09:32:24.406Z,50.80
2023-04-19T09:34:59.144Z,50.33
2023-04-19T09:37:51.433Z,50.35
2023-04-19T09:40:27.066Z,50.84
2023-04-19T09:43:08.835Z,50.25
2023-04-19T09:45:47.341Z,49.94
2023-04-19T09:48:14.399Z,49.30
2023-04-19T09:51:02.331Z,49.63
2023-04-19T09:53:34.644Z,48.93
2023-04-19T09:56:04.159Z,48.90
2023-04-19T09:58:42.501Z,47.84
2023-04-19T10:01:16.256Z,47.06
2023-04-19T10:03:49.939Z,47.75
2023-04-19T10:08:50.388Z,47.03
2023-04-19T10:11:19.900Z,46.34
2023-04-19T10:13:49.051Z,46.14
2023-04-19T10:16:20.004Z,45.98
2023-04-19T10:18:50.314Z,45.77
2023-04-19T10:21:19.353Z,45.92
2023-04-19T10:23:47.196Z,45.62
2023-04-19T10:26:14.242Z,45.68
2023-04-19T10:28:42.492Z,45.35
2023-04-19T10:31:16.269Z,45.26
2023-04-19T10:33:43.439Z,44.51
2023-04-19T10:36:15.071Z,44.39
2023-04-19T10:38:48.276Z,44.67
2023-04-19T10:41:18.305Z,44.38
2023-04-19T10:44:09.483Z,44.17
2023-04-19T10:46:38.651Z,43.76
2023-04-19T10:49:07.888Z,43.59
2023-04-19T10:51:42.447Z,43.27
2023-04-19T10:54:27.533Z,42.89
2023-04-19T10:57:00.626Z,43.06
2023-04-19T10:59:29.964Z,43.17
2023-04-19T11:01:59.697Z,42.92
2023-04-19T11:04:30.794Z,42.46
2023-04-19T11:07:06.276Z,42.50
2023-04-19T11:09:39.178Z,41.73
2023-04-19T11:12:09.905Z,41.86
2023-04-19T11:14:45.432Z,41.23
2023-04-19T11:17:27.854Z,41.31
2023-04-19T11:19:57.014Z,41.42
2023-04-19T11:22:27.017Z,40.94
2023-04-19T11:24:53.902Z,40.88
2023-04-19T11:27:21.617Z,40.44
2023-04-19T11:29:48.574Z,41.13
2023-04-19T11:32:15.634Z,41.00
2023-04-19T11:34:42.748Z,40.16
2023-04-19T11:37:11.030Z,40.13
2023-04-19T11:39:46.644Z,39.98
2023-04-19T11:42:18.433Z,39.70
2023-04-19T11:44:52.622Z,39.58
2023-04-19T11:47:39.778Z,39.50
2023-04-19T11:50:55.918Z,39.73
2023-04-19T11:53:44.127Z,39.35
2023-04-19T11:56:31.148Z,39.00
2023-04-19T11:59:18.319Z,38.98
2023-04-19T12:02:05.776Z,38.19
2023-04-19T12:04:52.929Z,38.54
2023-04-19T12:07:40.215Z,38.39
2023-04-19T12:10:32.293Z,38.25
2023-04-19T12:13:19.476Z,37.94
2023-04-19T12:16:06.956Z,36.96
2023-04-19T12:19:06.326Z,37.09
2023-04-19T12:21:53.184Z,36.83
2023-04-19T12:24:40.222Z,36.32
2023-04-19T12:27:27.959Z,36.46
2023-04-19T12:30:14.960Z,36.98
2023-04-19T12:33:02.020Z,36.07
2023-04-19T12:35:49.240Z,36.55
2023-04-19T12:38:36.023Z,35.82
2023-04-19T12:41:22.946Z,36.17
2023-04-19T12:44:09.842Z,35.74
2023-04-19T12:46:56.857Z,35.75
2023-04-19T12:49:43.709Z,35.96
2023-04-19T12:52:30.938Z,35.64
2023-04-19T12:55:17.794Z,35.30
2023-04-19T12:58:04.898Z,35.19
2023-04-19T13:00:51.776Z,35.33
2023-04-19T13:03:39.024Z,35.89
2023-04-19T13:06:26.307Z,35.60
2023-04-19T13:09:14.874Z,35.52
2023-04-19T13:12:02.366Z,35.26
2023-04-19T13:14:49.506Z,35.37
2023-04-19T13:17:36.723Z,35.32
2023-04-19T13:20:24.256Z,35.51
2023-04-19T13:23:11.167Z,35.87
2023-04-19T13:25:58.386Z,35.95
2023-04-19T13:28:45.321Z,35.35
2023-04-19T13:31:32.522Z,35.94
2023-04-19T13:34:19.537Z,35.71
2023-04-19T13:37:06.978Z,35.89
2023-04-19T13:40:03.984Z,35.68
2023-04-19T13:42:57.973Z,36.60
2023-04-19T13:45:44.979Z,36.57
2023-04-19T13:48:32.026Z,36.06
2023-04-19T13:51:19.678Z,35.99
2023-04-19T13:54:06.890Z,36.30
2023-04-19T13:56:53.810Z,36.18
2023-04-19T13:59:41.142Z,36.16
2023-04-19T14:02:28.750Z,36.03
2023-04-19T14:05:15.822Z,36.51
2023-04-19T14:08:02.725Z,36.82
2023-04-19T14:10:49.755Z,36.27
2023-04-19T14:13:37.030Z,36.31
2023-04-19T14:16:24.561Z,36.51
2023-04-19T14:19:11.621Z,36.82
2023-04-19T14:21:58.805Z,36.27
2023-04-19T14:24:45.766Z,36.95
2023-04-19T14:27:32.809Z,36.73
2023-04-19T14:30:19.665Z,36.57
2023-04-19T14:33:06.683Z,37.40
2023-04-19T14:35:53.495Z,37.55
2023-04-19T14:38:40.490Z,37.42
2023-04-19T14:41:27.285Z,38.06
2023-04-19T14:44:14.638Z,37.81
2023-04-19T14:47:01.475Z,37.99
2023-04-19T14:49:48.644Z,37.71
2023-04-19T14:52:35.668Z,38.05
2023-04-19T14:55:22.681Z,38.42
2023-04-19T14:58:09.529Z,37.96
2023-04-19T15:00:56.610Z,38.37
2023-04-19T15:03:43.743Z,38.57
2023-04-19T15:06:30.917Z,38.00
2023-04-19T15:09:18.172Z,38.60
2023-04-19T15:12:05.422Z,38.62
2023-04-19T15:14:52.372Z,38.56
2023-04-19T15:17:39.525Z,38.53
2023-04-19T15:20:27.052Z,38.13
2023-04-19T15:23:14.105Z,38.14
2023-04-19T15:26:00.948Z,38.60
2023-04-19T15:28:48.047Z,38.38
2023-04-19T15:31:34.979Z,38.22
2023-04-19T15:34:22.890Z,38.49
2023-04-19T15:37:09.766Z,38.29
2023-04-19T15:39:57.068Z,38.39
2023-04-19T15:42:43.864Z,38.21
2023-04-19T15:45:31.957Z,37.68
2023-04-19T15:48:18.891Z,38.25
2023-04-19T15:51:06.073Z,38.43
2023-04-19T15:53:52.916Z,38.20
2023-04-19T15:56:39.918Z,37.90
2023-04-19T15:59:26.739Z,37.09
2023-04-19T16:02:13.876Z,37.22
2023-04-19T16:05:00.889Z,37.61
2023-04-19T16:07:48.516Z,36.82
2023-04-19T16:10:35.468Z,37.39
2023-04-19T16:13:25.438Z,36.92
2023-04-19T16:16:12.316Z,37.31
2023-04-19T16:18:59.422Z,37.41
2023-04-19T16:21:46.350Z,37.32
2023-04-19T16:24:33.462Z,36.78
2023-04-19T16:27:21.401Z,36.77
2023-04-19T16:30:08.455Z,36.40
2023-04-19T16:32:55.372Z,36.58
2023-04-19T16:35:42.885Z,37.09
2023-04-19T16:38:29.820Z,37.05
2023-04-19T16:41:16.709Z,37.00
2023-04-19T16:44:03.629Z,36.58
2023-04-19T16:46:50.837Z,36.55
2023-04-19T16:49:37.883Z,36.57
2023-04-19T16:52:25.006Z,36.57
2023-04-19T16:55:11.882Z,36.58
2023-04-19T16:57:58.988Z,37.36
2023-04-19T17:00:45.845Z,37.41
2023-04-19T17:03:33.056Z,37.26
2023-04-19T17:06:21.070Z,37.13
2023-04-19T17:09:08.173Z,37.00
2023-04-19T17:11:55.082Z,38.08
2023-04-19T17:14:42.819Z,37.86
2023-04-19T17:17:29.686Z,38.17
2023-04-19T17:20:16.693Z,38.15
2023-04-19T17:23:03.971Z,38.78
2023-04-19T17:25:50.962Z,38.92
2023-04-19T17:28:37.801Z,39.19
2023-04-19T17:31:24.915Z,38.90
2023-04-19T17:34:11.736Z,39.36
2023-04-19T17:36:58.701Z,39.67
2023-04-19T17:39:45.845Z,39.76
2023-04-19T17:42:32.731Z,40.25
2023-04-19T17:45:19.596Z,40.13
2023-04-19T17:48:06.612Z,40.64
2023-04-19T17:50:53.604Z,40.58
2023-04-19T17:53:40.462Z,40.77
2023-04-19T17:56:27.402Z,41.13
2023-04-19T17:59:14.531Z,41.09
2023-04-19T18:02:01.673Z,41.13
2023-04-19T18:04:48.720Z,41.82
2023-04-19T18:07:35.774Z,41.64
2023-04-19T18:10:22.885Z,42.46
2023-04-19T18:13:09.938Z,42.12
2023-04-19T18:15:56.850Z,42.11
2023-04-19T18:18:43.818Z,42.68
2023-04-19T18:21:30.929Z,43.04
2023-04-19T18:24:17.881Z,42.98
2023-04-19T18:27:04.935Z,43.44
2023-04-19T18:29:51.932Z,43.67
2023-04-19T18:32:39.353Z,44.25
2023-04-19T18:35:27.502Z,44.19
2023-04-19T18:38:14.491Z,44.71
2023-04-19T18:41:01.318Z,44.33
2023-04-19T18:44:06.835Z,44.77
2023-04-19T18:46:55.151Z,45.27
2023-04-19T18:49:46.149Z,45.68
2023-04-19T18:52:44.983Z,46.39
2023-04-19T18:55:32.097Z,46.65
2023-04-19T18:58:18.968Z,46.82
2023-04-19T19:01:06.218Z,46.04
2023-04-19T19:04:23.527Z,47.14
2023-04-19T19:07:10.806Z,46.40
2023-04-19T19:10:16.802Z,47.48
2023-04-19T19:13:05.138Z,47.16
2023-04-19T19:15:51.988Z,47.45
2023-04-19T19:18:38.986Z,48.17
2023-04-19T19:21:28.640Z,47.99
2023-04-19T19:24:15.654Z,48.43
2023-04-19T19:27:02.994Z,49.07
2023-04-19T19:29:50.701Z,48.70
2023-04-19T19:32:37.726Z,49.74
2023-04-19T19:35:25.311Z,49.79
2023-04-19T19:38:12.174Z,49.06
2023-04-19T19:41:39.873Z,49.97
2023-04-19T19:44:06.129Z,50.03
2023-04-19T19:46:53.322Z,49.86
2023-04-19T19:50:02.005Z,50.74
2023-04-19T19:52:48.051Z,50.66
2023-04-19T19:55:35.065Z,50.86
2023-04-19T19:58:46.227Z,51.08
2023-04-19T20:01:28.931Z,50.63
2023-04-19T20:04:15.960Z,50.82
2023-04-19T20:09:52.815Z,51.50
2023-04-19T20:12:39.646Z,51.53
2023-04-19T20:15:27.204Z,51.92
2023-04-19T20:18:14.056Z,52.20
2023-04-19T20:21:01.010Z,52.24
2023-04-19T20:23:47.816Z,52.55
2023-04-19T20:26:34.767Z,52.59
2023-04-19T20:29:22.110Z,53.39
2023-04-19T20:32:09.047Z,52.79
2023-04-19T20:34:55.905Z,53.21
2023-04-19T20:37:42.993Z,53.18
2023-04-19T20:40:34.865Z,53.74
2023-04-19T20:43:21.940Z,53.33
2023-04-19T20:46:08.914Z,53.66
2023-04-19T20:48:56.038Z,53.88
2023-04-19T20:51:42.873Z,53.92
2023-04-19T20:54:30.050Z,54.04
2023-04-19T20:57:20.401Z,54.28
2023-04-19T21:00:07.444Z,54.09
2023-04-19T21:02:54.434Z,54.16
2023-04-19T21:05:41.769Z,54.53
2023-04-19T21:08:28.607Z,54.58
2023-04-19T21:11:15.512Z,54.55
2023-04-19T21:14:02.334Z,54.55
2023-04-19T21:16:49.245Z,54.95
2023-04-19T21:19:36.140Z,55.15
2023-04-19T21:22:23.301Z,55.12
2023-04-19T21:25:10.144Z,55.06
2023-04-19T21:27:57.197Z,55.52
2023-04-19T21:30:44.100Z,55.69
2023-04-19T21:33:31.178Z,55.63
2023-04-19T21:36:18.020Z,55.75
2023-04-19T21:39:05.351Z,56.23
2023-04-19T21:41:52.269Z,55.86
2023-04-19T21:44:39.736Z,56.17
2023-04-19T21:47:27.149Z,56.50
2023-04-19T21:50:14.134Z,56.75
2023-04-19T21:53:00.968Z,56.70
2023-04-19T21:55:48.081Z,56.43
2023-04-19T21:58:35.147Z,56.60
2023-04-19T22:01:22.123Z,56.62
2023-04-19T22:04:09.180Z,56.98
2023-04-19T22:06:56.127Z,56.64
2023-04-19T22:09:43.062Z,57.20
2023-04-19T22:12:30.027Z,56.77
2023-04-19T22:15:16.983Z,57.27
2023-04-19T22:18:03.952Z,57.13
2023-04-19T22:20:50.906Z,58.04
2023-04-19T22:23:37.838Z,58.11
2023-04-19T22:26:25.038Z,57.15
2023-04-19T22:29:12.204Z,58.26
2023-04-19T22:31:59.189Z,58.12
2023-04-19T22:34:46.184Z,57.47
2023-04-19T22:37:33.165Z,58.13
2023-04-19T22:40:20.088Z,58.33
2023-04-19T22:43:07.128Z,57.87
2023-04-19T22:45:54.059Z,59.07
2023-04-19T22:48:41.106Z,58.38
2023-04-19T22:51:28.139Z,59.01
2023-04-19T22:54:15.525Z,58.53
2023-04-19T22:57:02.787Z,59.08
2023-04-19T22:59:49.717Z,58.85
2023-04-19T23:02:36.758Z,59.54
2023-04-19T23:05:24.538Z,59.94
2023-04-19T23:08:11.435Z,59.71
2023-04-19T23:10:58.461Z,58.91
2023-04-19T23:13:45.334Z,59.41
2023-04-19T23:16:32.346Z,59.43
2023-04-19T23:19:19.372Z,59.63
2023-04-19T23:22:06.451Z,60.03
2023-04-19T23:24:53.382Z,59.91
2023-04-19T23:27:40.372Z,60.26
2023-04-19T23:30:27.790Z,59.57
2023-04-19T23:33:14.730Z,60.67
2023-04-19T23:36:01.656Z,60.99
2023-04-19T23:38:48.743Z,60.92
2023-04-19T23:41:35.634Z,60.42
2023-04-19T23:44:22.747Z,59.75
2023-04-19T23:47:09.731Z,60.03
2023-04-19T23:49:56.683Z,61.19
2023-04-19T23:52:43.816Z,61.43
2023-04-19T23:55:30.697Z,60.37
2023-04-19T23:58:17.764Z,61.47
